createdAt,value
2022-08-10T04:06:56.191Z,5.25
2022-08-10T04:13:00.358Z,4.75
2022-08-10T06:35:45.190Z,8.00
2022-08-10T06:42:14.888Z,6.00
2022-08-10T06:48:23.094Z,8.50
2022-08-10T06:54:35.068Z,8.75
2022-08-10T07:00:45.201Z,20.50
2022-08-10T07:06:53.667Z,10.75
2022-08-10T07:12:59.937Z,7.50
2022-08-10T07:19:04.755Z,8.00
2022-08-10T07:25:10.167Z,7.75
2022-08-10T07:31:35.435Z,8.00
2022-08-10T07:37:49.727Z,6.75
2022-08-10T07:43:53.210Z,9.25
2022-08-10T07:50:08.916Z,8.75
2022-08-10T07:56:26.409Z,7.25
2022-08-10T08:02:39.980Z,10.25
2022-08-10T08:08:44.663Z,12.50
2022-08-10T08:14:50.255Z,8.75
2022-08-10T08:20:55.271Z,9.00
2022-08-10T08:26:59.386Z,11.75
2022-08-10T08:33:06.182Z,11.00
2022-08-10T08:39:10.675Z,10.75
2022-08-10T08:45:35.222Z,7.25
2022-08-10T08:52:18.165Z,10.75
2022-08-10T08:58:32.991Z,10.75
2022-08-10T09:04:36.437Z,8.75
2022-08-10T09:11:01.080Z,9.25
2022-08-10T09:17:19.172Z,8.25
2022-08-10T09:24:04.442Z,9.00
2022-08-10T09:30:05.448Z,8.50
2022-08-10T09:36:33.354Z,8.75
2022-08-10T09:43:26.251Z,6.50
2022-08-10T09:49:56.345Z,7.25
2022-08-10T09:56:18.015Z,8.50
2022-08-10T10:02:29.164Z,9.25
2022-08-10T10:09:10.512Z,7.75
2022-08-10T10:15:37.876Z,7.75
2022-08-10T10:21:54.378Z,7.25
2022-08-10T10:28:02.885Z,9.75
2022-08-10T10:34:34.995Z,9.25
2022-08-10T10:40:45.457Z,8.00
2022-08-10T10:47:04.977Z,8.50
2022-08-10T10:53:30.164Z,7.50
2022-08-10T10:59:55.181Z,9.00
2022-08-10T11:06:39.711Z,8.75
2022-08-10T11:13:09.579Z,12.50
2022-08-10T11:20:01.933Z,9.00
2022-08-10T11:26:29.156Z,11.00
2022-08-10T11:33:11.849Z,10.00
2022-08-10T11:39:48.755Z,12.00
2022-08-10T11:46:28.043Z,18.25
2022-08-10T11:52:52.331Z,11.00
2022-08-10T11:59:17.410Z,15.50
2022-08-10T12:05:46.436Z,12.00
2022-08-10T12:11:54.275Z,11.00
2022-08-10T12:18:03.560Z,14.00
2022-08-10T12:24:17.516Z,12.50
2022-08-10T12:30:30.196Z,10.75
2022-08-10T12:37:12.162Z,11.75
2022-08-10T12:44:04.909Z,11.25
2022-08-10T12:50:33.356Z,11.67
2022-08-10T12:57:27.540Z,14.00
2022-08-10T13:04:21.733Z,14.00
2022-08-10T13:09:57.266Z,11.50
2022-08-10T13:16:00.455Z,6.00
2022-08-10T13:22:05.659Z,11.25
2022-08-10T13:28:35.985Z,15.50
2022-08-10T13:34:48.902Z,13.50
2022-08-10T13:40:52.809Z,17.25
2022-08-10T13:46:59.746Z,18.00
2022-08-10T13:53:02.581Z,19.00
2022-08-10T13:59:10.226Z,16.50
2022-08-10T14:05:16.856Z,17.50
2022-08-10T14:11:21.626Z,5.50
2022-08-10T14:17:26.939Z,8.50
2022-08-10T14:23:32.562Z,10.00
2022-08-10T14:29:58.160Z,6.00
2022-08-10T14:36:20.246Z,6.50
2022-08-10T14:42:36.025Z,5.25
2022-08-10T14:48:43.604Z,7.00
2022-08-10T14:54:49.703Z,6.00
2022-08-10T15:00:54.765Z,7.00
2022-08-10T15:07:28.213Z,8.00
2022-08-10T15:13:33.572Z,8.75
2022-08-10T15:20:02.074Z,5.75
2022-08-10T15:26:13.062Z,5.75
2022-08-10T15:32:41.532Z,5.75
2022-08-10T15:38:59.386Z,6.00
2022-08-10T15:45:02.554Z,5.50
2022-08-10T15:51:17.994Z,5.50
2022-08-10T15:57:28.814Z,5.25
2022-08-10T16:03:39.538Z,5.25
2022-08-10T16:10:26.233Z,5.00
2022-08-10T16:16:19.586Z,4.25
2022-08-10T16:22:36.015Z,4.75
2022-08-10T16:28:45.253Z,4.25
2022-08-10T16:34:53.995Z,3.00
2022-08-10T16:40:58.408Z,3.00
2022-08-10T16:47:01.718Z,3.25
2022-08-10T16:53:08.080Z,3.75
2022-08-10T16:59:20.496Z,3.25
2022-08-10T17:06:10.462Z,2.00
2022-08-10T17:11:51.706Z,2.50
2022-08-10T17:17:59.500Z,3.00
2022-08-10T17:24:06.381Z,3.25
2022-08-10T17:30:15.625Z,3.50
2022-08-10T17:36:20.858Z,2.00
2022-08-10T17:42:27.130Z,5.00
2022-08-10T17:48:34.550Z,3.75
2022-08-10T17:54:41.297Z,4.50
2022-08-10T18:00:48.627Z,4.25
2022-08-10T18:06:56.613Z,4.00
2022-08-10T18:13:00.972Z,5.00
2022-08-10T18:19:15.130Z,3.00
2022-08-10T18:25:27.096Z,4.00
2022-08-10T18:31:30.193Z,4.50
2022-08-10T18:37:33.458Z,3.00
2022-08-10T18:44:10.080Z,4.75
2022-08-10T18:50:12.973Z,5.00
2022-08-10T18:56:20.758Z,4.00
2022-08-10T19:02:41.678Z,5.50
2022-08-10T19:09:09.715Z,5.33
2022-08-10T19:15:44.234Z,4.33
2022-08-10T19:22:01.329Z,4.50
2022-08-10T19:28:32.040Z,5.75
2022-08-10T19:34:56.767Z,3.25
2022-08-10T19:41:32.242Z,4.75
2022-08-10T19:48:10.425Z,4.00
2022-08-10T19:54:21.704Z,5.00
2022-08-10T20:00:40.132Z,4.75
2022-08-10T20:07:04.416Z,5.00
2022-08-10T20:13:21.114Z,5.67
2022-08-10T20:19:53.378Z,3.25
2022-08-10T20:26:19.173Z,3.00
2022-08-10T20:32:30.822Z,5.00
2022-08-10T20:38:57.178Z,3.00
2022-08-10T20:45:03.436Z,4.50
2022-08-10T20:51:12.960Z,4.00
2022-08-10T20:57:54.210Z,4.50
2022-08-10T21:04:31.045Z,4.75
2022-08-10T21:10:58.061Z,3.75
2022-08-10T21:17:06.232Z,4.00
2022-08-10T21:23:11.950Z,6.00
2022-08-10T21:29:37.806Z,3.00
2022-08-10T21:36:18.919Z,5.50
2022-08-10T21:43:18.835Z,3.00
2022-08-10T21:49:51.097Z,6.00
2022-08-10T21:56:35.862Z,5.67
2022-08-10T22:02:57.534Z,5.67
2022-08-10T22:09:24.613Z,5.50
2022-08-10T22:16:09.964Z,5.00
2022-08-10T22:22:37.459Z,5.67
2022-08-10T22:29:10.048Z,5.33
2022-08-10T22:35:41.264Z,5.25
2022-08-10T22:42:31.028Z,6.25
2022-08-10T22:49:02.530Z,4.50
2022-08-10T22:55:35.428Z,5.25
2022-08-10T23:02:08.189Z,4.00
2022-08-10T23:08:30.204Z,4.00
2022-08-10T23:14:40.523Z,3.75
2022-08-10T23:20:45.482Z,5.00
2022-08-10T23:26:53.364Z,6.75
2022-08-10T23:33:02.070Z,5.00
2022-08-10T23:39:25.941Z,7.00
2022-08-10T23:45:52.387Z,5.25
2022-08-10T23:51:56.923Z,5.75
2022-08-10T23:58:06.191Z,4.50
